sensor_id;sensor_type;location;lat;lon;timestamp;temperature;humidity
32217;DHT22;67098;51.140;4.088;2023-05-19T00:01:10;13.90;66.70
32217;DHT22;67098;51.140;4.088;2023-05-19T00:03:42;13.80;66.90
32217;DHT22;67098;51.140;4.088;2023-05-19T00:06:13;13.90;67.10
32217;DHT22;67098;51.140;4.088;2023-05-19T00:08:38;13.80;67.10
32217;DHT22;67098;51.140;4.088;2023-05-19T00:11:04;13.80;67.00
32217;DHT22;67098;51.140;4.088;2023-05-19T00:13:32;13.70;67.30
32217;DHT22;67098;51.140;4.088;2023-05-19T00:15:57;13.80;67.70
32217;DHT22;67098;51.140;4.088;2023-05-19T00:18:23;13.60;67.50
32217;DHT22;67098;51.140;4.088;2023-05-19T00:20:49;13.70;67.60
32217;DHT22;67098;51.140;4.088;2023-05-19T00:23:16;13.60;67.70
32217;DHT22;67098;51.140;4.088;2023-05-19T00:25:42;13.60;67.70
32217;DHT22;67098;51.140;4.088;2023-05-19T00:28:07;13.60;67.70
32217;DHT22;67098;51.140;4.088;2023-05-19T00:30:33;13.50;67.90
32217;DHT22;67098;51.140;4.088;2023-05-19T00:32:59;13.40;68.00
32217;DHT22;67098;51.140;4.088;2023-05-19T00:35:24;13.40;68.20
32217;DHT22;67098;51.140;4.088;2023-05-19T00:37:51;13.50;68.20
32217;DHT22;67098;51.140;4.088;2023-05-19T00:40:17;13.50;68.10
32217;DHT22;67098;51.140;4.088;2023-05-19T00:42:42;13.30;68.40
32217;DHT22;67098;51.140;4.088;2023-05-19T00:45:08;13.30;68.50
32217;DHT22;67098;51.140;4.088;2023-05-19T00:47:34;13.30;68.50
32217;DHT22;67098;51.140;4.088;2023-05-19T00:50:00;13.30;68.80
32217;DHT22;67098;51.140;4.088;2023-05-19T00:52:26;13.20;69.00
32217;DHT22;67098;51.140;4.088;2023-05-19T00:54:52;13.20;68.90
32217;DHT22;67098;51.140;4.088;2023-05-19T00:57:20;13.20;69.00
32217;DHT22;67098;51.140;4.088;2023-05-19T00:59:47;13.20;69.10
32217;DHT22;67098;51.140;4.088;2023-05-19T01:02:13;13.10;69.30
32217;DHT22;67098;51.140;4.088;2023-05-19T01:04:39;13.10;69.30
32217;DHT22;67098;51.140;4.088;2023-05-19T01:07:06;13.00;69.50
32217;DHT22;67098;51.140;4.088;2023-05-19T01:09:32;13.00;69.70
32217;DHT22;67098;51.140;4.088;2023-05-19T01:11:59;13.00;69.70
32217;DHT22;67098;51.140;4.088;2023-05-19T01:14:27;13.00;69.60
32217;DHT22;67098;51.140;4.088;2023-05-19T01:17:03;12.90;69.70
32217;DHT22;67098;51.140;4.088;2023-05-19T01:19:59;12.90;69.90
32217;DHT22;67098;51.140;4.088;2023-05-19T01:31:06;12.80;70.10
32217;DHT22;67098;51.140;4.088;2023-05-19T01:33:35;12.80;70.50
32217;DHT22;67098;51.140;4.088;2023-05-19T01:36:02;12.80;70.40
32217;DHT22;67098;51.140;4.088;2023-05-19T01:38:32;12.70;70.20
32217;DHT22;67098;51.140;4.088;2023-05-19T01:40:58;12.50;70.80
32217;DHT22;67098;51.140;4.088;2023-05-19T01:43:26;12.40;71.40
32217;DHT22;67098;51.140;4.088;2023-05-19T01:45:52;12.10;72.40
32217;DHT22;67098;51.140;4.088;2023-05-19T01:48:19;12.20;72.00
32217;DHT22;67098;51.140;4.088;2023-05-19T01:50:46;12.30;71.40
32217;DHT22;67098;51.140;4.088;2023-05-19T01:53:11;12.40;70.90
32217;DHT22;67098;51.140;4.088;2023-05-19T01:55:46;12.50;70.80
32217;DHT22;67098;51.140;4.088;2023-05-19T02:08:42;12.40;71.50
32217;DHT22;67098;51.140;4.088;2023-05-19T02:11:36;12.40;71.10
32217;DHT22;67098;51.140;4.088;2023-05-19T02:16:50;12.30;71.40
32217;DHT22;67098;51.140;4.088;2023-05-19T02:19:28;12.30;71.50
32217;DHT22;67098;51.140;4.088;2023-05-19T02:21:55;12.30;71.50
32217;DHT22;67098;51.140;4.088;2023-05-19T02:24:21;12.30;71.60
32217;DHT22;67098;51.140;4.088;2023-05-19T02:26:50;12.30;71.60
32217;DHT22;67098;51.140;4.088;2023-05-19T02:29:16;12.30;71.50
32217;DHT22;67098;51.140;4.088;2023-05-19T02:31:42;12.20;71.70
32217;DHT22;67098;51.140;4.088;2023-05-19T02:34:08;12.20;71.80
32217;DHT22;67098;51.140;4.088;2023-05-19T02:36:34;12.10;71.70
32217;DHT22;67098;51.140;4.088;2023-05-19T02:39:03;12.20;71.70
32217;DHT22;67098;51.140;4.088;2023-05-19T02:41:29;12.10;71.60
32217;DHT22;67098;51.140;4.088;2023-05-19T02:43:56;12.10;71.70
32217;DHT22;67098;51.140;4.088;2023-05-19T02:46:22;12.00;71.80
32217;DHT22;67098;51.140;4.088;2023-05-19T02:48:49;12.00;71.70
32217;DHT22;67098;51.140;4.088;2023-05-19T02:51:14;12.00;71.90
32217;DHT22;67098;51.140;4.088;2023-05-19T02:53:40;12.00;71.90
32217;DHT22;67098;51.140;4.088;2023-05-19T02:56:06;12.00;72.10
32217;DHT22;67098;51.140;4.088;2023-05-19T02:58:31;11.90;72.00
32217;DHT22;67098;51.140;4.088;2023-05-19T03:00:57;12.00;72.30
32217;DHT22;67098;51.140;4.088;2023-05-19T03:03:23;11.90;72.30
32217;DHT22;67098;51.140;4.088;2023-05-19T03:05:48;11.90;72.30
32217;DHT22;67098;51.140;4.088;2023-05-19T03:08:14;11.90;72.40
32217;DHT22;67098;51.140;4.088;2023-05-19T03:10:40;11.90;72.50
32217;DHT22;67098;51.140;4.088;2023-05-19T03:13:05;11.90;72.50
32217;DHT22;67098;51.140;4.088;2023-05-19T03:15:31;11.90;72.50
32217;DHT22;67098;51.140;4.088;2023-05-19T03:17:57;11.80;72.30
32217;DHT22;67098;51.140;4.088;2023-05-19T03:20:23;11.80;72.50
32217;DHT22;67098;51.140;4.088;2023-05-19T03:22:49;11.80;72.50
32217;DHT22;67098;51.140;4.088;2023-05-19T03:25:15;11.80;72.30
32217;DHT22;67098;51.140;4.088;2023-05-19T03:27:41;11.70;72.60
32217;DHT22;67098;51.140;4.088;2023-05-19T03:30:07;11.70;72.70
32217;DHT22;67098;51.140;4.088;2023-05-19T03:32:33;11.70;72.80
32217;DHT22;67098;51.140;4.088;2023-05-19T03:35:03;11.70;72.90
32217;DHT22;67098;51.140;4.088;2023-05-19T03:37:29;11.40;73.70
32217;DHT22;67098;51.140;4.088;2023-05-19T03:39:55;11.30;73.80
32217;DHT22;67098;51.140;4.088;2023-05-19T03:42:21;11.10;74.50
32217;DHT22;67098;51.140;4.088;2023-05-19T03:44:47;10.90;75.70
32217;DHT22;67098;51.140;4.088;2023-05-19T03:47:13;11.10;75.20
32217;DHT22;67098;51.140;4.088;2023-05-19T03:49:38;11.30;74.40
32217;DHT22;67098;51.140;4.088;2023-05-19T03:52:04;11.40;74.10
32217;DHT22;67098;51.140;4.088;2023-05-19T03:54:30;11.40;74.50
32217;DHT22;67098;51.140;4.088;2023-05-19T03:56:56;11.40;74.10
32217;DHT22;67098;51.140;4.088;2023-05-19T03:59:21;11.50;74.00
32217;DHT22;67098;51.140;4.088;2023-05-19T04:01:48;11.50;74.10
32217;DHT22;67098;51.140;4.088;2023-05-19T04:04:14;11.50;74.00
32217;DHT22;67098;51.140;4.088;2023-05-19T04:06:39;11.40;74.60
32217;DHT22;67098;51.140;4.088;2023-05-19T04:09:12;11.40;74.50
32217;DHT22;67098;51.140;4.088;2023-05-19T04:11:38;11.40;74.20
32217;DHT22;67098;51.140;4.088;2023-05-19T04:14:05;11.50;74.10
32217;DHT22;67098;51.140;4.088;2023-05-19T04:16:31;11.50;74.20
32217;DHT22;67098;51.140;4.088;2023-05-19T04:18:56;11.50;74.70
32217;DHT22;67098;51.140;4.088;2023-05-19T04:21:22;11.50;75.40
32217;DHT22;67098;51.140;4.088;2023-05-19T04:23:48;11.50;76.20
32217;DHT22;67098;51.140;4.088;2023-05-19T04:26:13;11.50;77.30
32217;DHT22;67098;51.140;4.088;2023-05-19T04:28:40;11.60;78.00
32217;DHT22;67098;51.140;4.088;2023-05-19T04:31:09;11.60;78.40
32217;DHT22;67098;51.140;4.088;2023-05-19T04:33:38;11.60;78.70
32217;DHT22;67098;51.140;4.088;2023-05-19T04:36:08;11.80;79.10
32217;DHT22;67098;51.140;4.088;2023-05-19T04:38:35;11.90;78.40
32217;DHT22;67098;51.140;4.088;2023-05-19T04:41:07;11.90;78.20
32217;DHT22;67098;51.140;4.088;2023-05-19T04:43:35;12.00;78.30
32217;DHT22;67098;51.140;4.088;2023-05-19T04:46:02;12.10;78.50
32217;DHT22;67098;51.140;4.088;2023-05-19T04:48:31;12.20;78.80
32217;DHT22;67098;51.140;4.088;2023-05-19T04:50:58;12.30;79.40
32217;DHT22;67098;51.140;4.088;2023-05-19T04:53:27;12.40;79.30
32217;DHT22;67098;51.140;4.088;2023-05-19T04:55:54;12.50;79.10
32217;DHT22;67098;51.140;4.088;2023-05-19T04:58:22;12.60;79.00
32217;DHT22;67098;51.140;4.088;2023-05-19T05:00:51;12.70;78.70
32217;DHT22;67098;51.140;4.088;2023-05-19T05:03:18;12.80;78.50
32217;DHT22;67098;51.140;4.088;2023-05-19T05:05:47;12.90;78.30
32217;DHT22;67098;51.140;4.088;2023-05-19T05:08:13;13.00;78.20
32217;DHT22;67098;51.140;4.088;2023-05-19T05:10:40;13.10;77.70
32217;DHT22;67098;51.140;4.088;2023-05-19T05:13:06;13.20;77.60
32217;DHT22;67098;51.140;4.088;2023-05-19T05:15:32;13.30;77.80
32217;DHT22;67098;51.140;4.088;2023-05-19T05:18:00;13.50;77.50
32217;DHT22;67098;51.140;4.088;2023-05-19T05:20:26;13.60;76.70
32217;DHT22;67098;51.140;4.088;2023-05-19T05:22:51;13.70;76.40
32217;DHT22;67098;51.140;4.088;2023-05-19T05:25:18;13.90;76.60
32217;DHT22;67098;51.140;4.088;2023-05-19T05:27:44;14.00;76.00
32217;DHT22;67098;51.140;4.088;2023-05-19T05:30:09;14.20;75.50
32217;DHT22;67098;51.140;4.088;2023-05-19T05:32:35;14.40;75.00
32217;DHT22;67098;51.140;4.088;2023-05-19T05:35:01;14.60;74.10
32217;DHT22;67098;51.140;4.088;2023-05-19T05:37:27;14.80;74.10
32217;DHT22;67098;51.140;4.088;2023-05-19T05:39:52;14.90;73.30
32217;DHT22;67098;51.140;4.088;2023-05-19T05:42:18;15.10;72.80
32217;DHT22;67098;51.140;4.088;2023-05-19T05:44:44;15.20;72.70
32217;DHT22;67098;51.140;4.088;2023-05-19T05:47:10;15.30;71.80
32217;DHT22;67098;51.140;4.088;2023-05-19T05:49:37;15.40;71.40
32217;DHT22;67098;51.140;4.088;2023-05-19T05:52:05;15.40;71.10
32217;DHT22;67098;51.140;4.088;2023-05-19T05:54:32;15.50;71.40
32217;DHT22;67098;51.140;4.088;2023-05-19T05:57:00;15.50;71.40
32217;DHT22;67098;51.140;4.088;2023-05-19T05:59:26;15.60;70.90
32217;DHT22;67098;51.140;4.088;2023-05-19T06:01:52;15.70;70.70
32217;DHT22;67098;51.140;4.088;2023-05-19T06:04:18;15.80;70.40
32217;DHT22;67098;51.140;4.088;2023-05-19T06:06:45;15.90;70.20
32217;DHT22;67098;51.140;4.088;2023-05-19T06:09:11;15.90;70.40
32217;DHT22;67098;51.140;4.088;2023-05-19T06:11:36;16.00;70.10
32217;DHT22;67098;51.140;4.088;2023-05-19T06:14:02;16.20;70.10
32217;DHT22;67098;51.140;4.088;2023-05-19T06:16:28;16.30;69.80
32217;DHT22;67098;51.140;4.088;2023-05-19T06:18:54;16.40;69.20
32217;DHT22;67098;51.140;4.088;2023-05-19T06:21:19;16.50;68.50
32217;DHT22;67098;51.140;4.088;2023-05-19T06:23:46;16.60;68.00
32217;DHT22;67098;51.140;4.088;2023-05-19T06:26:11;16.70;67.80
32217;DHT22;67098;51.140;4.088;2023-05-19T06:28:37;16.80;68.00
32217;DHT22;67098;51.140;4.088;2023-05-19T06:31:03;16.80;66.80
32217;DHT22;67098;51.140;4.088;2023-05-19T06:33:28;16.90;66.60
32217;DHT22;67098;51.140;4.088;2023-05-19T06:35:54;17.10;66.90
32217;DHT22;67098;51.140;4.088;2023-05-19T06:38:20;17.20;66.70
32217;DHT22;67098;51.140;4.088;2023-05-19T06:40:46;17.40;66.70
32217;DHT22;67098;51.140;4.088;2023-05-19T06:43:12;17.50;66.40
32217;DHT22;67098;51.140;4.088;2023-05-19T06:45:38;17.60;65.40
32217;DHT22;67098;51.140;4.088;2023-05-19T06:48:04;17.70;64.50
32217;DHT22;67098;51.140;4.088;2023-05-19T06:50:30;17.80;65.00
32217;DHT22;67098;51.140;4.088;2023-05-19T06:52:56;17.90;65.10
32217;DHT22;67098;51.140;4.088;2023-05-19T06:55:22;18.10;64.60
32217;DHT22;67098;51.140;4.088;2023-05-19T06:57:48;18.20;64.20
32217;DHT22;67098;51.140;4.088;2023-05-19T07:00:14;18.30;62.60
32217;DHT22;67098;51.140;4.088;2023-05-19T07:02:41;18.30;62.90
32217;DHT22;67098;51.140;4.088;2023-05-19T07:05:07;18.40;62.90
32217;DHT22;67098;51.140;4.088;2023-05-19T07:07:33;18.50;63.30
32217;DHT22;67098;51.140;4.088;2023-05-19T07:09:59;18.70;64.10
32217;DHT22;67098;51.140;4.088;2023-05-19T07:12:24;18.90;62.40
32217;DHT22;67098;51.140;4.088;2023-05-19T07:14:51;19.00;62.20
32217;DHT22;67098;51.140;4.088;2023-05-19T07:17:17;19.20;61.90
32217;DHT22;67098;51.140;4.088;2023-05-19T07:19:43;19.30;61.10
32217;DHT22;67098;51.140;4.088;2023-05-19T07:22:08;19.40;61.10
32217;DHT22;67098;51.140;4.088;2023-05-19T07:24:34;19.60;61.70
32217;DHT22;67098;51.140;4.088;2023-05-19T07:27:00;19.80;60.50
32217;DHT22;67098;51.140;4.088;2023-05-19T07:29:26;19.90;59.40
32217;DHT22;67098;51.140;4.088;2023-05-19T07:31:51;20.10;59.80
32217;DHT22;67098;51.140;4.088;2023-05-19T07:34:23;20.30;59.50
32217;DHT22;67098;51.140;4.088;2023-05-19T07:36:49;20.50;59.20
32217;DHT22;67098;51.140;4.088;2023-05-19T07:39:16;20.70;58.60
32217;DHT22;67098;51.140;4.088;2023-05-19T07:41:42;20.70;57.80
32217;DHT22;67098;51.140;4.088;2023-05-19T07:44:08;20.70;57.70
32217;DHT22;67098;51.140;4.088;2023-05-19T07:46:35;20.60;57.50
32217;DHT22;67098;51.140;4.088;2023-05-19T07:49:01;20.40;58.00
32217;DHT22;67098;51.140;4.088;2023-05-19T07:51:26;20.40;58.90
32217;DHT22;67098;51.140;4.088;2023-05-19T07:53:52;20.50;59.00
32217;DHT22;67098;51.140;4.088;2023-05-19T07:56:18;20.50;59.40
32217;DHT22;67098;51.140;4.088;2023-05-19T07:58:44;20.40;58.50
32217;DHT22;67098;51.140;4.088;2023-05-19T08:01:10;20.50;59.20
32217;DHT22;67098;51.140;4.088;2023-05-19T08:03:36;20.60;58.50
32217;DHT22;67098;51.140;4.088;2023-05-19T08:06:02;20.70;58.70
32217;DHT22;67098;51.140;4.088;2023-05-19T08:08:27;21.00;58.10
32217;DHT22;67098;51.140;4.088;2023-05-19T08:10:53;21.30;57.30
32217;DHT22;67098;51.140;4.088;2023-05-19T08:13:18;21.60;57.40
32217;DHT22;67098;51.140;4.088;2023-05-19T08:15:44;21.70;56.70
32217;DHT22;67098;51.140;4.088;2023-05-19T08:18:10;22.10;56.40
32217;DHT22;67098;51.140;4.088;2023-05-19T08:20:36;22.30;55.80
32217;DHT22;67098;51.140;4.088;2023-05-19T08:23:02;22.60;55.20
32217;DHT22;67098;51.140;4.088;2023-05-19T08:25:28;22.90;54.50
32217;DHT22;67098;51.140;4.088;2023-05-19T08:27:54;23.20;53.90
32217;DHT22;67098;51.140;4.088;2023-05-19T08:30:20;23.40;54.40
32217;DHT22;67098;51.140;4.088;2023-05-19T08:32:46;23.60;54.00
32217;DHT22;67098;51.140;4.088;2023-05-19T08:35:13;23.90;53.30
32217;DHT22;67098;51.140;4.088;2023-05-19T08:37:39;24.30;52.80
32217;DHT22;67098;51.140;4.088;2023-05-19T08:40:05;24.50;51.30
32217;DHT22;67098;51.140;4.088;2023-05-19T08:42:33;24.60;51.80
32217;DHT22;67098;51.140;4.088;2023-05-19T08:45:00;24.70;51.40
32217;DHT22;67098;51.140;4.088;2023-05-19T08:47:26;24.80;50.80
32217;DHT22;67098;51.140;4.088;2023-05-19T08:49:57;24.80;50.10
32217;DHT22;67098;51.140;4.088;2023-05-19T08:55:06;25.20;50.40
32217;DHT22;67098;51.140;4.088;2023-05-19T08:57:34;25.70;50.10
32217;DHT22;67098;51.140;4.088;2023-05-19T09:00:01;26.00;49.50
32217;DHT22;67098;51.140;4.088;2023-05-19T09:02:30;26.30;48.60
32217;DHT22;67098;51.140;4.088;2023-05-19T09:04:58;26.50;48.80
32217;DHT22;67098;51.140;4.088;2023-05-19T09:07:25;26.80;48.50
32217;DHT22;67098;51.140;4.088;2023-05-19T09:09:54;26.90;47.60
32217;DHT22;67098;51.140;4.088;2023-05-19T09:12:21;27.20;46.80
32217;DHT22;67098;51.140;4.088;2023-05-19T09:14:47;27.40;46.90
32217;DHT22;67098;51.140;4.088;2023-05-19T09:17:13;27.20;46.20
32217;DHT22;67098;51.140;4.088;2023-05-19T09:19:43;27.30;45.80
32217;DHT22;67098;51.140;4.088;2023-05-19T09:22:14;27.10;45.80
32217;DHT22;67098;51.140;4.088;2023-05-19T09:24:40;27.30;46.60
32217;DHT22;67098;51.140;4.088;2023-05-19T09:27:07;27.60;46.40
32217;DHT22;67098;51.140;4.088;2023-05-19T09:29:32;27.80;46.10
32217;DHT22;67098;51.140;4.088;2023-05-19T09:31:58;27.70;45.40
32217;DHT22;67098;51.140;4.088;2023-05-19T09:34:29;27.60;45.60
32217;DHT22;67098;51.140;4.088;2023-05-19T09:36:55;27.60;45.90
32217;DHT22;67098;51.140;4.088;2023-05-19T09:39:24;27.50;45.80
32217;DHT22;67098;51.140;4.088;2023-05-19T09:41:56;27.60;46.10
32217;DHT22;67098;51.140;4.088;2023-05-19T09:44:24;27.60;46.60
32217;DHT22;67098;51.140;4.088;2023-05-19T09:46:55;27.20;45.40
32217;DHT22;67098;51.140;4.088;2023-05-19T09:49:25;26.80;46.70
32217;DHT22;67098;51.140;4.088;2023-05-19T09:51:55;26.70;47.30
32217;DHT22;67098;51.140;4.088;2023-05-19T09:54:22;26.80;47.30
32217;DHT22;67098;51.140;4.088;2023-05-19T09:57:02;26.80;47.10
32217;DHT22;67098;51.140;4.088;2023-05-19T09:59:29;26.80;46.60
32217;DHT22;67098;51.140;4.088;2023-05-19T10:01:56;26.90;45.40
32217;DHT22;67098;51.140;4.088;2023-05-19T10:04:25;26.90;45.40
32217;DHT22;67098;51.140;4.088;2023-05-19T10:06:54;27.30;45.50
32217;DHT22;67098;51.140;4.088;2023-05-19T10:09:25;27.50;45.00
32217;DHT22;67098;51.140;4.088;2023-05-19T10:11:52;27.10;44.60
32217;DHT22;67098;51.140;4.088;2023-05-19T10:14:21;27.00;45.50
32217;DHT22;67098;51.140;4.088;2023-05-19T10:16:50;27.10;44.90
32217;DHT22;67098;51.140;4.088;2023-05-19T10:19:19;27.30;44.70
32217;DHT22;67098;51.140;4.088;2023-05-19T10:21:46;27.20;44.50
32217;DHT22;67098;51.140;4.088;2023-05-19T10:24:11;27.00;45.00
32217;DHT22;67098;51.140;4.088;2023-05-19T10:26:39;26.90;44.80
32217;DHT22;67098;51.140;4.088;2023-05-19T10:29:06;26.80;44.50
32217;DHT22;67098;51.140;4.088;2023-05-19T10:31:33;27.10;45.00
32217;DHT22;67098;51.140;4.088;2023-05-19T10:36:50;27.80;44.30
32217;DHT22;67098;51.140;4.088;2023-05-19T10:39:32;27.80;43.10
32217;DHT22;67098;51.140;4.088;2023-05-19T10:42:18;28.40;42.20
32217;DHT22;67098;51.140;4.088;2023-05-19T10:44:57;28.70;43.50
32217;DHT22;67098;51.140;4.088;2023-05-19T10:47:27;28.30;43.80
32217;DHT22;67098;51.140;4.088;2023-05-19T10:49:53;27.90;43.50
32217;DHT22;67098;51.140;4.088;2023-05-19T10:52:21;27.90;44.30
32217;DHT22;67098;51.140;4.088;2023-05-19T10:54:47;28.40;43.80
32217;DHT22;67098;51.140;4.088;2023-05-19T10:57:14;28.80;43.20
32217;DHT22;67098;51.140;4.088;2023-05-19T10:59:41;28.80;42.90
32217;DHT22;67098;51.140;4.088;2023-05-19T11:02:09;28.40;42.90
32217;DHT22;67098;51.140;4.088;2023-05-19T11:04:48;27.90;43.50
32217;DHT22;67098;51.140;4.088;2023-05-19T11:07:19;27.80;43.60
32217;DHT22;67098;51.140;4.088;2023-05-19T11:09:50;28.00;43.70
32217;DHT22;67098;51.140;4.088;2023-05-19T11:12:22;28.00;43.90
32217;DHT22;67098;51.140;4.088;2023-05-19T11:14:53;28.40;43.50
32217;DHT22;67098;51.140;4.088;2023-05-19T11:17:19;29.00;43.00
32217;DHT22;67098;51.140;4.088;2023-05-19T11:19:55;29.50;41.30
32217;DHT22;67098;51.140;4.088;2023-05-19T11:22:23;29.60;41.80
32217;DHT22;67098;51.140;4.088;2023-05-19T11:24:50;29.10;41.90
32217;DHT22;67098;51.140;4.088;2023-05-19T11:27:26;28.60;41.60
32217;DHT22;67098;51.140;4.088;2023-05-19T11:29:53;28.40;42.60
32217;DHT22;67098;51.140;4.088;2023-05-19T11:32:21;28.60;42.80
32217;DHT22;67098;51.140;4.088;2023-05-19T11:34:50;28.80;43.10
32217;DHT22;67098;51.140;4.088;2023-05-19T11:37:16;28.60;41.70
32217;DHT22;67098;51.140;4.088;2023-05-19T11:39:41;28.50;42.00
32217;DHT22;67098;51.140;4.088;2023-05-19T11:42:08;27.90;42.10
32217;DHT22;67098;51.140;4.088;2023-05-19T11:44:37;27.40;42.70
32217;DHT22;67098;51.140;4.088;2023-05-19T11:47:03;27.00;42.60
32217;DHT22;67098;51.140;4.088;2023-05-19T11:49:29;27.50;42.50
32217;DHT22;67098;51.140;4.088;2023-05-19T11:51:55;27.70;41.60
32217;DHT22;67098;51.140;4.088;2023-05-19T11:54:28;27.50;41.60
32217;DHT22;67098;51.140;4.088;2023-05-19T11:56:54;27.40;41.00
32217;DHT22;67098;51.140;4.088;2023-05-19T11:59:32;27.90;40.60
32217;DHT22;67098;51.140;4.088;2023-05-19T12:04:45;28.10;39.30
32217;DHT22;67098;51.140;4.088;2023-05-19T12:07:11;28.20;39.50
32217;DHT22;67098;51.140;4.088;2023-05-19T12:09:38;28.50;40.10
32217;DHT22;67098;51.140;4.088;2023-05-19T12:12:04;28.90;40.10
32217;DHT22;67098;51.140;4.088;2023-05-19T12:14:30;28.50;39.90
32217;DHT22;67098;51.140;4.088;2023-05-19T12:16:56;28.50;39.50
32217;DHT22;67098;51.140;4.088;2023-05-19T12:19:25;28.70;39.70
32217;DHT22;67098;51.140;4.088;2023-05-19T12:21:51;28.80;39.10
32217;DHT22;67098;51.140;4.088;2023-05-19T12:24:19;28.40;39.50
32217;DHT22;67098;51.140;4.088;2023-05-19T12:26:44;27.90;40.00
32217;DHT22;67098;51.140;4.088;2023-05-19T12:29:12;28.00;39.80
32217;DHT22;67098;51.140;4.088;2023-05-19T12:31:38;28.50;39.80
32217;DHT22;67098;51.140;4.088;2023-05-19T12:34:04;29.20;39.30
32217;DHT22;67098;51.140;4.088;2023-05-19T12:36:31;29.30;38.40
32217;DHT22;67098;51.140;4.088;2023-05-19T12:38:57;28.90;38.60
32217;DHT22;67098;51.140;4.088;2023-05-19T12:41:26;28.90;38.00
32217;DHT22;67098;51.140;4.088;2023-05-19T12:43:53;29.30;38.90
32217;DHT22;67098;51.140;4.088;2023-05-19T12:46:19;29.10;38.40
32217;DHT22;67098;51.140;4.088;2023-05-19T12:48:45;29.60;38.00
32217;DHT22;67098;51.140;4.088;2023-05-19T12:51:18;30.10;38.00
32217;DHT22;67098;51.140;4.088;2023-05-19T12:53:45;30.60;37.90
32217;DHT22;67098;51.140;4.088;2023-05-19T12:56:14;30.50;36.60
32217;DHT22;67098;51.140;4.088;2023-05-19T12:58:41;30.10;36.60
32217;DHT22;67098;51.140;4.088;2023-05-19T13:01:14;29.50;37.60
32217;DHT22;67098;51.140;4.088;2023-05-19T13:03:40;30.00;37.80
32217;DHT22;67098;51.140;4.088;2023-05-19T13:06:07;30.40;37.20
32217;DHT22;67098;51.140;4.088;2023-05-19T13:08:34;30.10;37.50
32217;DHT22;67098;51.140;4.088;2023-05-19T13:11:00;30.60;37.50
32217;DHT22;67098;51.140;4.088;2023-05-19T13:13:26;30.20;37.50
32217;DHT22;67098;51.140;4.088;2023-05-19T13:15:51;29.50;37.10
32217;DHT22;67098;51.140;4.088;2023-05-19T13:18:18;29.30;37.40
32217;DHT22;67098;51.140;4.088;2023-05-19T13:20:44;29.50;37.20
32217;DHT22;67098;51.140;4.088;2023-05-19T13:23:12;30.10;37.20
32217;DHT22;67098;51.140;4.088;2023-05-19T13:25:38;30.60;36.90
32217;DHT22;67098;51.140;4.088;2023-05-19T13:28:04;31.10;36.70
32217;DHT22;67098;51.140;4.088;2023-05-19T13:30:32;31.50;36.10
32217;DHT22;67098;51.140;4.088;2023-05-19T13:32:58;31.70;35.90
32217;DHT22;67098;51.140;4.088;2023-05-19T13:35:23;32.00;36.10
32217;DHT22;67098;51.140;4.088;2023-05-19T13:37:49;32.40;36.50
32217;DHT22;67098;51.140;4.088;2023-05-19T13:40:15;32.90;35.90
32217;DHT22;67098;51.140;4.088;2023-05-19T13:42:43;33.40;35.40
32217;DHT22;67098;51.140;4.088;2023-05-19T13:45:09;33.70;35.30
32217;DHT22;67098;51.140;4.088;2023-05-19T13:47:35;33.60;33.70
32217;DHT22;67098;51.140;4.088;2023-05-19T13:50:02;33.30;33.60
32217;DHT22;67098;51.140;4.088;2023-05-19T13:52:31;33.20;34.50
32217;DHT22;67098;51.140;4.088;2023-05-19T13:54:57;33.00;34.00
32217;DHT22;67098;51.140;4.088;2023-05-19T13:57:23;32.80;34.10
32217;DHT22;67098;51.140;4.088;2023-05-19T13:59:50;33.00;34.50
32217;DHT22;67098;51.140;4.088;2023-05-19T14:02:16;32.90;34.00
32217;DHT22;67098;51.140;4.088;2023-05-19T14:04:42;32.90;33.90
32217;DHT22;67098;51.140;4.088;2023-05-19T14:07:07;33.00;33.40
32217;DHT22;67098;51.140;4.088;2023-05-19T14:09:36;33.10;34.00
32217;DHT22;67098;51.140;4.088;2023-05-19T14:12:02;33.20;35.10
32217;DHT22;67098;51.140;4.088;2023-05-19T14:14:28;33.30;34.00
32217;DHT22;67098;51.140;4.088;2023-05-19T14:16:54;33.30;34.30
32217;DHT22;67098;51.140;4.088;2023-05-19T14:19:20;33.10;33.40
32217;DHT22;67098;51.140;4.088;2023-05-19T14:21:48;32.90;33.80
32217;DHT22;67098;51.140;4.088;2023-05-19T14:24:14;32.60;34.10
32217;DHT22;67098;51.140;4.088;2023-05-19T14:26:40;32.80;34.60
32217;DHT22;67098;51.140;4.088;2023-05-19T14:29:06;32.70;33.90
32217;DHT22;67098;51.140;4.088;2023-05-19T14:31:32;32.60;33.70
32217;DHT22;67098;51.140;4.088;2023-05-19T14:33:57;32.00;34.40
32217;DHT22;67098;51.140;4.088;2023-05-19T14:36:23;31.40;33.60
32217;DHT22;67098;51.140;4.088;2023-05-19T14:38:49;30.60;34.80
32217;DHT22;67098;51.140;4.088;2023-05-19T14:41:14;30.20;35.00
32217;DHT22;67098;51.140;4.088;2023-05-19T14:43:40;30.00;34.90
32217;DHT22;67098;51.140;4.088;2023-05-19T14:46:07;29.70;34.60
32217;DHT22;67098;51.140;4.088;2023-05-19T14:48:34;29.60;34.80
32217;DHT22;67098;51.140;4.088;2023-05-19T14:51:00;30.00;35.00
32217;DHT22;67098;51.140;4.088;2023-05-19T14:53:25;30.50;35.20
32217;DHT22;67098;51.140;4.088;2023-05-19T14:55:51;30.90;34.90
32217;DHT22;67098;51.140;4.088;2023-05-19T14:58:17;30.90;34.50
32217;DHT22;67098;51.140;4.088;2023-05-19T15:00:43;30.90;35.20
32217;DHT22;67098;51.140;4.088;2023-05-19T15:03:08;30.80;34.70
32217;DHT22;67098;51.140;4.088;2023-05-19T15:05:36;30.70;34.50
32217;DHT22;67098;51.140;4.088;2023-05-19T15:08:02;30.50;34.80
32217;DHT22;67098;51.140;4.088;2023-05-19T15:10:28;30.10;34.90
32217;DHT22;67098;51.140;4.088;2023-05-19T15:12:53;29.70;35.10
32217;DHT22;67098;51.140;4.088;2023-05-19T15:15:21;29.20;35.80
32217;DHT22;67098;51.140;4.088;2023-05-19T15:17:47;28.80;36.20
32217;DHT22;67098;51.140;4.088;2023-05-19T15:20:13;29.00;36.10
32217;DHT22;67098;51.140;4.088;2023-05-19T15:22:39;29.40;36.10
32217;DHT22;67098;51.140;4.088;2023-05-19T15:25:05;29.70;35.80
32217;DHT22;67098;51.140;4.088;2023-05-19T15:27:31;29.80;35.90
32217;DHT22;67098;51.140;4.088;2023-05-19T15:29:58;29.90;35.90
32217;DHT22;67098;51.140;4.088;2023-05-19T15:32:24;29.80;35.10
32217;DHT22;67098;51.140;4.088;2023-05-19T15:34:49;29.70;35.70
32217;DHT22;67098;51.140;4.088;2023-05-19T15:37:15;29.60;36.00
32217;DHT22;67098;51.140;4.088;2023-05-19T15:39:41;29.70;36.20
32217;DHT22;67098;51.140;4.088;2023-05-19T15:42:06;29.80;35.70
32217;DHT22;67098;51.140;4.088;2023-05-19T15:44:32;29.80;35.90
32217;DHT22;67098;51.140;4.088;2023-05-19T15:46:58;29.80;36.00
32217;DHT22;67098;51.140;4.088;2023-05-19T15:49:23;29.70;35.70
32217;DHT22;67098;51.140;4.088;2023-05-19T15:51:49;29.60;35.60
32217;DHT22;67098;51.140;4.088;2023-05-19T15:54:15;29.60;35.60
32217;DHT22;67098;51.140;4.088;2023-05-19T15:56:41;29.60;35.30
32217;DHT22;67098;51.140;4.088;2023-05-19T15:59:06;29.40;35.10